sensor_id;sensor_type;location;lat;lon;timestamp;P1;durP1;ratioP1;P2;durP2;ratioP2
41693;SDS011;27377;50.666;9.150;2024-01-30T00:00:17;15.88;;;10.27;;
41693;SDS011;27377;50.666;9.150;2024-01-30T00:03:01;16.77;;;10.50;;
41693;SDS011;27377;50.666;9.150;2024-01-30T00:05:45;16.38;;;10.20;;
41693;SDS011;27377;50.666;9.150;2024-01-30T00:08:30;15.67;;;9.80;;
41693;SDS011;27377;50.666;9.150;2024-01-30T00:11:14;18.95;;;10.45;;
41693;SDS011;27377;50.666;9.150;2024-01-30T00:13:59;15.40;;;9.50;;
41693;SDS011;27377;50.666;9.150;2024-01-30T00:16:43;14.10;;;9.10;;
41693;SDS011;27377;50.666;9.150;2024-01-30T00:19:27;14.53;;;8.67;;
41693;SDS011;27377;50.666;9.150;2024-01-30T00:22:11;12.95;;;8.20;;
41693;SDS011;27377;50.666;9.150;2024-01-30T00:24:56;12.80;;;8.40;;
41693;SDS011;27377;50.666;9.150;2024-01-30T00:27:40;13.77;;;8.53;;
41693;SDS011;27377;50.666;9.150;2024-01-30T00:30:24;13.07;;;9.00;;
41693;SDS011;27377;50.666;9.150;2024-01-30T00:33:09;14.50;;;9.40;;
41693;SDS011;27377;50.666;9.150;2024-01-30T00:35:53;15.40;;;9.63;;
41693;SDS011;27377;50.666;9.150;2024-01-30T00:38:37;15.10;;;9.27;;
41693;SDS011;27377;50.666;9.150;2024-01-30T00:41:21;13.77;;;9.10;;
41693;SDS011;27377;50.666;9.150;2024-01-30T00:44:05;13.27;;;9.25;;
41693;SDS011;27377;50.666;9.150;2024-01-30T00:46:49;14.55;;;9.55;;
41693;SDS011;27377;50.666;9.150;2024-01-30T00:49:33;12.25;;;8.57;;
41693;SDS011;27377;50.666;9.150;2024-01-30T00:52:17;11.48;;;8.15;;
41693;SDS011;27377;50.666;9.150;2024-01-30T00:55:01;14.18;;;8.00;;
41693;SDS011;27377;50.666;9.150;2024-01-30T00:57:46;13.43;;;8.30;;
41693;SDS011;27377;50.666;9.150;2024-01-30T01:00:30;13.60;;;8.80;;
41693;SDS011;27377;50.666;9.150;2024-01-30T01:03:15;13.73;;;8.80;;
41693;SDS011;27377;50.666;9.150;2024-01-30T01:05:59;13.20;;;8.05;;
41693;SDS011;27377;50.666;9.150;2024-01-30T01:08:43;12.52;;;8.27;;
41693;SDS011;27377;50.666;9.150;2024-01-30T01:11:27;12.35;;;8.07;;
41693;SDS011;27377;50.666;9.150;2024-01-30T01:14:11;13.95;;;8.60;;
41693;SDS011;27377;50.666;9.150;2024-01-30T01:16:55;11.38;;;7.95;;
41693;SDS011;27377;50.666;9.150;2024-01-30T01:19:40;13.00;;;8.15;;
41693;SDS011;27377;50.666;9.150;2024-01-30T01:22:24;13.80;;;8.32;;
41693;SDS011;27377;50.666;9.150;2024-01-30T01:25:08;12.43;;;8.00;;
41693;SDS011;27377;50.666;9.150;2024-01-30T01:27:53;12.40;;;8.00;;
41693;SDS011;27377;50.666;9.150;2024-01-30T01:30:37;11.88;;;7.95;;
41693;SDS011;27377;50.666;9.150;2024-01-30T01:33:22;12.98;;;8.52;;
41693;SDS011;27377;50.666;9.150;2024-01-30T01:36:07;13.95;;;8.23;;
41693;SDS011;27377;50.666;9.150;2024-01-30T01:38:51;12.55;;;8.45;;
41693;SDS011;27377;50.666;9.150;2024-01-30T01:41:35;11.45;;;8.35;;
41693;SDS011;27377;50.666;9.150;2024-01-30T01:44:19;14.13;;;8.10;;
41693;SDS011;27377;50.666;9.150;2024-01-30T01:47:03;13.73;;;8.60;;
41693;SDS011;27377;50.666;9.150;2024-01-30T01:49:47;11.85;;;8.07;;
41693;SDS011;27377;50.666;9.150;2024-01-30T01:52:32;12.38;;;8.07;;
41693;SDS011;27377;50.666;9.150;2024-01-30T01:55:16;13.93;;;7.68;;
41693;SDS011;27377;50.666;9.150;2024-01-30T01:58:02;12.23;;;8.00;;
41693;SDS011;27377;50.666;9.150;2024-01-30T02:00:46;11.95;;;8.10;;
41693;SDS011;27377;50.666;9.150;2024-01-30T02:03:31;12.25;;;8.65;;
41693;SDS011;27377;50.666;9.150;2024-01-30T02:06:15;12.45;;;8.02;;
41693;SDS011;27377;50.666;9.150;2024-01-30T02:08:59;12.68;;;8.73;;
41693;SDS011;27377;50.666;9.150;2024-01-30T02:11:44;13.88;;;8.90;;
41693;SDS011;27377;50.666;9.150;2024-01-30T02:14:28;14.15;;;8.80;;
41693;SDS011;27377;50.666;9.150;2024-01-30T02:17:12;12.45;;;8.82;;
41693;SDS011;27377;50.666;9.150;2024-01-30T02:19:57;11.30;;;8.23;;
41693;SDS011;27377;50.666;9.150;2024-01-30T02:22:41;12.88;;;8.73;;
41693;SDS011;27377;50.666;9.150;2024-01-30T02:25:33;14.77;;;8.60;;
41693;SDS011;27377;50.666;9.150;2024-01-30T02:28:21;12.70;;;8.65;;
41693;SDS011;27377;50.666;9.150;2024-01-30T02:31:05;13.88;;;8.80;;
41693;SDS011;27377;50.666;9.150;2024-01-30T02:33:49;12.73;;;8.13;;
41693;SDS011;27377;50.666;9.150;2024-01-30T02:36:33;10.45;;;7.47;;
41693;SDS011;27377;50.666;9.150;2024-01-30T02:39:17;13.73;;;8.13;;
41693;SDS011;27377;50.666;9.150;2024-01-30T02:42:01;11.68;;;8.20;;
41693;SDS011;27377;50.666;9.150;2024-01-30T02:44:45;12.25;;;7.93;;
41693;SDS011;27377;50.666;9.150;2024-01-30T02:47:29;11.60;;;8.00;;
41693;SDS011;27377;50.666;9.150;2024-01-30T02:50:13;13.00;;;8.15;;
41693;SDS011;27377;50.666;9.150;2024-01-30T02:52:58;13.45;;;8.95;;
41693;SDS011;27377;50.666;9.150;2024-01-30T02:55:42;13.35;;;8.38;;
41693;SDS011;27377;50.666;9.150;2024-01-30T02:58:26;12.77;;;8.27;;
41693;SDS011;27377;50.666;9.150;2024-01-30T03:01:10;10.68;;;7.35;;
41693;SDS011;27377;50.666;9.150;2024-01-30T03:03:55;13.10;;;8.17;;
41693;SDS011;27377;50.666;9.150;2024-01-30T03:06:39;11.35;;;7.82;;
41693;SDS011;27377;50.666;9.150;2024-01-30T03:09:28;10.70;;;7.33;;
41693;SDS011;27377;50.666;9.150;2024-01-30T03:12:12;12.45;;;7.40;;
41693;SDS011;27377;50.666;9.150;2024-01-30T03:14:56;11.73;;;7.30;;
41693;SDS011;27377;50.666;9.150;2024-01-30T03:17:40;9.87;;;6.23;;
41693;SDS011;27377;50.666;9.150;2024-01-30T03:20:24;10.23;;;6.55;;
41693;SDS011;27377;50.666;9.150;2024-01-30T03:23:08;11.37;;;6.90;;
41693;SDS011;27377;50.666;9.150;2024-01-30T03:25:52;12.80;;;7.50;;
41693;SDS011;27377;50.666;9.150;2024-01-30T03:28:36;13.00;;;7.50;;
41693;SDS011;27377;50.666;9.150;2024-01-30T03:31:20;10.90;;;6.65;;
41693;SDS011;27377;50.666;9.150;2024-01-30T03:34:04;10.77;;;6.57;;
41693;SDS011;27377;50.666;9.150;2024-01-30T03:36:48;10.40;;;6.53;;
41693;SDS011;27377;50.666;9.150;2024-01-30T03:39:32;11.17;;;7.10;;
41693;SDS011;27377;50.666;9.150;2024-01-30T03:42:16;10.40;;;6.63;;
41693;SDS011;27377;50.666;9.150;2024-01-30T03:45:00;13.23;;;7.55;;
41693;SDS011;27377;50.666;9.150;2024-01-30T03:47:45;11.23;;;6.75;;
41693;SDS011;27377;50.666;9.150;2024-01-30T03:50:29;10.90;;;7.33;;
41693;SDS011;27377;50.666;9.150;2024-01-30T03:53:13;11.13;;;7.03;;
41693;SDS011;27377;50.666;9.150;2024-01-30T03:55:57;10.00;;;6.97;;
41693;SDS011;27377;50.666;9.150;2024-01-30T03:58:41;11.32;;;7.32;;
41693;SDS011;27377;50.666;9.150;2024-01-30T04:01:25;11.02;;;6.80;;
41693;SDS011;27377;50.666;9.150;2024-01-30T04:04:09;10.90;;;7.10;;
41693;SDS011;27377;50.666;9.150;2024-01-30T04:06:53;10.97;;;6.83;;
41693;SDS011;27377;50.666;9.150;2024-01-30T04:09:38;12.35;;;6.97;;
41693;SDS011;27377;50.666;9.150;2024-01-30T04:12:22;11.93;;;7.57;;
41693;SDS011;27377;50.666;9.150;2024-01-30T04:15:06;12.23;;;7.13;;
41693;SDS011;27377;50.666;9.150;2024-01-30T04:17:51;12.10;;;7.07;;
41693;SDS011;27377;50.666;9.150;2024-01-30T04:20:36;12.00;;;7.10;;
41693;SDS011;27377;50.666;9.150;2024-01-30T04:23:20;13.00;;;7.88;;
41693;SDS011;27377;50.666;9.150;2024-01-30T04:26:03;12.00;;;7.43;;
41693;SDS011;27377;50.666;9.150;2024-01-30T04:28:47;14.77;;;7.85;;
41693;SDS011;27377;50.666;9.150;2024-01-30T04:31:31;11.23;;;7.60;;
41693;SDS011;27377;50.666;9.150;2024-01-30T04:34:15;14.65;;;8.48;;
41693;SDS011;27377;50.666;9.150;2024-01-30T04:36:59;13.75;;;8.20;;
41693;SDS011;27377;50.666;9.150;2024-01-30T04:39:44;13.63;;;8.48;;
41693;SDS011;27377;50.666;9.150;2024-01-30T04:42:28;14.60;;;8.43;;
41693;SDS011;27377;50.666;9.150;2024-01-30T04:45:12;13.60;;;9.00;;
41693;SDS011;27377;50.666;9.150;2024-01-30T04:47:56;14.03;;;8.70;;
41693;SDS011;27377;50.666;9.150;2024-01-30T04:50:40;14.13;;;9.02;;
41693;SDS011;27377;50.666;9.150;2024-01-30T04:53:24;14.07;;;9.38;;
41693;SDS011;27377;50.666;9.150;2024-01-30T04:56:08;13.85;;;9.00;;
41693;SDS011;27377;50.666;9.150;2024-01-30T04:58:52;15.90;;;10.00;;
41693;SDS011;27377;50.666;9.150;2024-01-30T05:01:36;16.60;;;10.23;;
41693;SDS011;27377;50.666;9.150;2024-01-30T05:04:20;14.68;;;10.18;;
41693;SDS011;27377;50.666;9.150;2024-01-30T05:07:06;16.20;;;10.65;;
41693;SDS011;27377;50.666;9.150;2024-01-30T05:09:50;15.23;;;10.15;;
41693;SDS011;27377;50.666;9.150;2024-01-30T05:12:34;14.32;;;9.48;;
41693;SDS011;27377;50.666;9.150;2024-01-30T05:15:18;17.97;;;10.80;;
41693;SDS011;27377;50.666;9.150;2024-01-30T05:18:03;14.88;;;9.95;;
41693;SDS011;27377;50.666;9.150;2024-01-30T05:20:47;17.00;;;10.73;;
41693;SDS011;27377;50.666;9.150;2024-01-30T05:23:33;16.15;;;10.57;;
41693;SDS011;27377;50.666;9.150;2024-01-30T05:26:20;15.75;;;10.63;;
41693;SDS011;27377;50.666;9.150;2024-01-30T05:29:06;15.35;;;10.57;;
41693;SDS011;27377;50.666;9.150;2024-01-30T05:31:51;17.60;;;10.98;;
41693;SDS011;27377;50.666;9.150;2024-01-30T05:34:36;15.38;;;10.30;;
41693;SDS011;27377;50.666;9.150;2024-01-30T05:37:20;15.87;;;10.80;;
41693;SDS011;27377;50.666;9.150;2024-01-30T05:40:04;17.02;;;11.25;;
41693;SDS011;27377;50.666;9.150;2024-01-30T05:42:49;16.03;;;10.83;;
41693;SDS011;27377;50.666;9.150;2024-01-30T05:45:33;16.80;;;11.37;;
41693;SDS011;27377;50.666;9.150;2024-01-30T05:48:19;15.93;;;10.80;;
41693;SDS011;27377;50.666;9.150;2024-01-30T05:51:07;16.58;;;11.25;;
41693;SDS011;27377;50.666;9.150;2024-01-30T05:53:51;18.67;;;11.30;;
41693;SDS011;27377;50.666;9.150;2024-01-30T05:56:35;17.95;;;11.85;;
41693;SDS011;27377;50.666;9.150;2024-01-30T05:59:19;18.25;;;11.50;;
41693;SDS011;27377;50.666;9.150;2024-01-30T06:02:03;15.88;;;11.32;;
41693;SDS011;27377;50.666;9.150;2024-01-30T06:04:48;18.77;;;11.50;;
41693;SDS011;27377;50.666;9.150;2024-01-30T06:07:32;16.98;;;11.77;;
41693;SDS011;27377;50.666;9.150;2024-01-30T06:10:17;16.92;;;11.43;;
41693;SDS011;27377;50.666;9.150;2024-01-30T06:13:01;17.05;;;10.93;;
41693;SDS011;27377;50.666;9.150;2024-01-30T06:15:49;15.85;;;10.98;;
41693;SDS011;27377;50.666;9.150;2024-01-30T06:18:33;17.08;;;11.20;;
41693;SDS011;27377;50.666;9.150;2024-01-30T06:21:26;16.63;;;10.95;;
41693;SDS011;27377;50.666;9.150;2024-01-30T06:24:10;16.92;;;11.07;;
41693;SDS011;27377;50.666;9.150;2024-01-30T06:26:54;16.23;;;10.55;;
41693;SDS011;27377;50.666;9.150;2024-01-30T06:29:39;14.93;;;10.77;;
41693;SDS011;27377;50.666;9.150;2024-01-30T06:32:24;16.13;;;10.70;;
41693;SDS011;27377;50.666;9.150;2024-01-30T06:35:08;14.63;;;10.15;;
41693;SDS011;27377;50.666;9.150;2024-01-30T06:37:54;16.02;;;10.63;;
41693;SDS011;27377;50.666;9.150;2024-01-30T06:40:41;15.95;;;10.35;;
41693;SDS011;27377;50.666;9.150;2024-01-30T06:43:25;15.43;;;10.32;;
41693;SDS011;27377;50.666;9.150;2024-01-30T06:46:09;17.13;;;10.35;;
41693;SDS011;27377;50.666;9.150;2024-01-30T06:48:53;15.77;;;10.32;;
41693;SDS011;27377;50.666;9.150;2024-01-30T06:51:37;17.20;;;10.90;;
41693;SDS011;27377;50.666;9.150;2024-01-30T06:54:21;15.03;;;10.67;;
41693;SDS011;27377;50.666;9.150;2024-01-30T06:57:05;15.38;;;10.45;;
41693;SDS011;27377;50.666;9.150;2024-01-30T06:59:54;15.48;;;10.50;;
41693;SDS011;27377;50.666;9.150;2024-01-30T07:02:38;16.50;;;10.73;;
41693;SDS011;27377;50.666;9.150;2024-01-30T07:05:23;16.38;;;10.60;;
41693;SDS011;27377;50.666;9.150;2024-01-30T07:08:07;16.30;;;10.70;;
41693;SDS011;27377;50.666;9.150;2024-01-30T07:10:51;16.27;;;10.98;;
41693;SDS011;27377;50.666;9.150;2024-01-30T07:13:39;16.98;;;10.60;;
41693;SDS011;27377;50.666;9.150;2024-01-30T07:16:23;15.35;;;10.35;;
41693;SDS011;27377;50.666;9.150;2024-01-30T07:19:07;15.65;;;10.52;;
41693;SDS011;27377;50.666;9.150;2024-01-30T07:21:55;14.85;;;10.05;;
41693;SDS011;27377;50.666;9.150;2024-01-30T07:24:43;17.10;;;9.95;;
41693;SDS011;27377;50.666;9.150;2024-01-30T07:27:32;15.20;;;10.00;;
41693;SDS011;27377;50.666;9.150;2024-01-30T07:30:17;15.75;;;9.73;;
41693;SDS011;27377;50.666;9.150;2024-01-30T07:33:02;14.02;;;8.93;;
41693;SDS011;27377;50.666;9.150;2024-01-30T07:35:46;14.68;;;9.45;;
41693;SDS011;27377;50.666;9.150;2024-01-30T07:38:36;14.45;;;9.40;;
41693;SDS011;27377;50.666;9.150;2024-01-30T07:41:20;12.35;;;8.38;;
41693;SDS011;27377;50.666;9.150;2024-01-30T07:44:05;15.23;;;8.98;;
41693;SDS011;27377;50.666;9.150;2024-01-30T07:46:49;13.98;;;9.00;;
41693;SDS011;27377;50.666;9.150;2024-01-30T07:49:33;13.48;;;8.45;;
41693;SDS011;27377;50.666;9.150;2024-01-30T07:52:17;12.65;;;8.40;;
41693;SDS011;27377;50.666;9.150;2024-01-30T07:55:02;13.80;;;8.27;;
41693;SDS011;27377;50.666;9.150;2024-01-30T07:57:47;13.83;;;8.50;;
41693;SDS011;27377;50.666;9.150;2024-01-30T08:00:31;16.67;;;8.70;;
41693;SDS011;27377;50.666;9.150;2024-01-30T08:03:15;13.10;;;8.65;;
41693;SDS011;27377;50.666;9.150;2024-01-30T08:06:01;14.30;;;8.93;;
41693;SDS011;27377;50.666;9.150;2024-01-30T08:08:45;14.48;;;8.90;;
41693;SDS011;27377;50.666;9.150;2024-01-30T08:11:29;15.10;;;9.48;;
41693;SDS011;27377;50.666;9.150;2024-01-30T08:14:14;14.85;;;9.65;;
41693;SDS011;27377;50.666;9.150;2024-01-30T08:16:58;13.73;;;9.05;;
41693;SDS011;27377;50.666;9.150;2024-01-30T08:19:42;14.87;;;9.30;;
41693;SDS011;27377;50.666;9.150;2024-01-30T08:22:27;17.27;;;10.07;;
41693;SDS011;27377;50.666;9.150;2024-01-30T08:25:11;14.38;;;9.45;;
41693;SDS011;27377;50.666;9.150;2024-01-30T08:27:55;14.82;;;9.05;;
41693;SDS011;27377;50.666;9.150;2024-01-30T08:30:39;13.95;;;9.00;;
41693;SDS011;27377;50.666;9.150;2024-01-30T08:33:23;15.00;;;9.55;;
41693;SDS011;27377;50.666;9.150;2024-01-30T08:36:07;15.02;;;8.98;;
41693;SDS011;27377;50.666;9.150;2024-01-30T08:38:51;15.33;;;9.43;;
41693;SDS011;27377;50.666;9.150;2024-01-30T08:41:36;14.60;;;9.23;;
41693;SDS011;27377;50.666;9.150;2024-01-30T08:44:20;13.85;;;9.23;;
41693;SDS011;27377;50.666;9.150;2024-01-30T08:47:04;15.02;;;9.32;;
41693;SDS011;27377;50.666;9.150;2024-01-30T08:49:49;14.63;;;8.98;;
41693;SDS011;27377;50.666;9.150;2024-01-30T08:52:33;14.27;;;8.50;;
41693;SDS011;27377;50.666;9.150;2024-01-30T08:55:17;14.43;;;8.70;;
41693;SDS011;27377;50.666;9.150;2024-01-30T08:58:01;12.67;;;8.10;;
41693;SDS011;27377;50.666;9.150;2024-01-30T09:00:48;12.67;;;8.00;;
41693;SDS011;27377;50.666;9.150;2024-01-30T09:03:32;13.57;;;8.20;;
41693;SDS011;27377;50.666;9.150;2024-01-30T09:06:17;13.20;;;8.57;;
41693;SDS011;27377;50.666;9.150;2024-01-30T09:09:01;14.55;;;8.45;;
41693;SDS011;27377;50.666;9.150;2024-01-30T09:11:46;13.20;;;8.60;;
41693;SDS011;27377;50.666;9.150;2024-01-30T09:14:31;13.70;;;8.98;;
41693;SDS011;27377;50.666;9.150;2024-01-30T09:17:14;17.83;;;9.73;;
41693;SDS011;27377;50.666;9.150;2024-01-30T09:19:58;14.20;;;9.23;;
41693;SDS011;27377;50.666;9.150;2024-01-30T09:22:43;15.95;;;9.98;;
41693;SDS011;27377;50.666;9.150;2024-01-30T09:25:27;15.77;;;9.45;;
41693;SDS011;27377;50.666;9.150;2024-01-30T09:28:11;16.57;;;10.27;;
41693;SDS011;27377;50.666;9.150;2024-01-30T09:30:55;17.40;;;10.52;;
41693;SDS011;27377;50.666;9.150;2024-01-30T09:33:39;15.98;;;10.10;;
41693;SDS011;27377;50.666;9.150;2024-01-30T09:36:24;16.55;;;10.32;;
41693;SDS011;27377;50.666;9.150;2024-01-30T09:39:09;16.75;;;10.75;;
41693;SDS011;27377;50.666;9.150;2024-01-30T09:42:05;18.95;;;11.90;;
41693;SDS011;27377;50.666;9.150;2024-01-30T09:45:01;17.42;;;10.85;;
41693;SDS011;27377;50.666;9.150;2024-01-30T09:47:49;15.77;;;9.85;;
41693;SDS011;27377;50.666;9.150;2024-01-30T09:50:34;15.00;;;9.50;;
41693;SDS011;27377;50.666;9.150;2024-01-30T09:53:20;15.47;;;9.03;;
41693;SDS011;27377;50.666;9.150;2024-01-30T09:56:09;15.00;;;9.00;;
41693;SDS011;27377;50.666;9.150;2024-01-30T09:58:55;14.43;;;8.57;;
41693;SDS011;27377;50.666;9.150;2024-01-30T10:01:39;12.20;;;7.90;;
41693;SDS011;27377;50.666;9.150;2024-01-30T10:04:24;12.65;;;8.35;;
41693;SDS011;27377;50.666;9.150;2024-01-30T10:07:08;13.20;;;8.18;;
41693;SDS011;27377;50.666;9.150;2024-01-30T10:09:56;13.20;;;8.45;;
41693;SDS011;27377;50.666;9.150;2024-01-30T10:12:40;12.47;;;7.97;;
41693;SDS011;27377;50.666;9.150;2024-01-30T10:15:24;12.18;;;8.05;;
41693;SDS011;27377;50.666;9.150;2024-01-30T10:18:11;14.63;;;8.63;;
41693;SDS011;27377;50.666;9.150;2024-01-30T10:20:55;13.18;;;8.40;;
41693;SDS011;27377;50.666;9.150;2024-01-30T10:23:39;13.77;;;8.30;;
41693;SDS011;27377;50.666;9.150;2024-01-30T10:26:24;14.17;;;8.77;;
41693;SDS011;27377;50.666;9.150;2024-01-30T10:29:08;13.65;;;8.50;;
41693;SDS011;27377;50.666;9.150;2024-01-30T10:32:02;14.75;;;8.32;;
41693;SDS011;27377;50.666;9.150;2024-01-30T10:34:47;12.52;;;8.20;;
41693;SDS011;27377;50.666;9.150;2024-01-30T10:37:31;11.80;;;7.90;;
41693;SDS011;27377;50.666;9.150;2024-01-30T10:40:16;11.30;;;7.50;;
41693;SDS011;27377;50.666;9.150;2024-01-30T10:43:05;11.85;;;7.82;;
41693;SDS011;27377;50.666;9.150;2024-01-30T10:45:52;12.93;;;7.63;;
41693;SDS011;27377;50.666;9.150;2024-01-30T10:48:42;11.82;;;7.68;;
41693;SDS011;27377;50.666;9.150;2024-01-30T10:51:30;14.20;;;8.57;;
41693;SDS011;27377;50.666;9.150;2024-01-30T10:54:15;14.68;;;8.70;;
41693;SDS011;27377;50.666;9.150;2024-01-30T10:57:01;14.43;;;8.73;;
41693;SDS011;27377;50.666;9.150;2024-01-30T10:59:47;11.37;;;8.30;;
41693;SDS011;27377;50.666;9.150;2024-01-30T11:02:34;12.83;;;8.30;;
41693;SDS011;27377;50.666;9.150;2024-01-30T11:05:26;14.13;;;8.80;;
41693;SDS011;27377;50.666;9.150;2024-01-30T11:08:12;13.57;;;8.32;;
41693;SDS011;27377;50.666;9.150;2024-01-30T11:10:57;13.77;;;8.30;;
41693;SDS011;27377;50.666;9.150;2024-01-30T11:13:42;13.07;;;8.18;;
41693;SDS011;27377;50.666;9.150;2024-01-30T11:16:30;12.32;;;7.40;;
41693;SDS011;27377;50.666;9.150;2024-01-30T11:19:24;12.68;;;7.70;;
41693;SDS011;27377;50.666;9.150;2024-01-30T11:22:14;13.90;;;7.82;;
41693;SDS011;27377;50.666;9.150;2024-01-30T11:24:58;12.18;;;7.40;;
41693;SDS011;27377;50.666;9.150;2024-01-30T11:27:43;12.02;;;7.10;;
41693;SDS011;27377;50.666;9.150;2024-01-30T11:30:31;10.43;;;6.90;;
41693;SDS011;27377;50.666;9.150;2024-01-30T11:33:27;11.10;;;6.95;;
41693;SDS011;27377;50.666;9.150;2024-01-30T11:36:16;10.48;;;7.05;;
41693;SDS011;27377;50.666;9.150;2024-01-30T11:39:01;10.60;;;6.95;;
41693;SDS011;27377;50.666;9.150;2024-01-30T11:41:46;11.88;;;7.13;;
41693;SDS011;27377;50.666;9.150;2024-01-30T11:44:34;11.00;;;7.10;;
41693;SDS011;27377;50.666;9.150;2024-01-30T11:47:18;11.20;;;7.18;;
41693;SDS011;27377;50.666;9.150;2024-01-30T11:50:02;11.07;;;7.27;;
41693;SDS011;27377;50.666;9.150;2024-01-30T11:52:47;11.40;;;6.70;;
41693;SDS011;27377;50.666;9.150;2024-01-30T11:55:32;11.70;;;7.07;;
41693;SDS011;27377;50.666;9.150;2024-01-30T11:58:17;10.65;;;6.47;;
41693;SDS011;27377;50.666;9.150;2024-01-30T12:01:01;11.07;;;7.00;;
41693;SDS011;27377;50.666;9.150;2024-01-30T12:03:51;11.05;;;6.93;;
41693;SDS011;27377;50.666;9.150;2024-01-30T12:06:35;11.00;;;6.80;;
41693;SDS011;27377;50.666;9.150;2024-01-30T12:09:21;10.23;;;6.50;;
41693;SDS011;27377;50.666;9.150;2024-01-30T12:12:06;10.57;;;6.53;;
41693;SDS011;27377;50.666;9.150;2024-01-30T12:14:55;11.20;;;6.45;;
41693;SDS011;27377;50.666;9.150;2024-01-30T12:17:40;11.45;;;6.78;;
41693;SDS011;27377;50.666;9.150;2024-01-30T12:20:25;10.35;;;6.55;;
41693;SDS011;27377;50.666;9.150;2024-01-30T12:23:09;10.33;;;6.33;;
41693;SDS011;27377;50.666;9.150;2024-01-30T12:25:55;12.00;;;6.60;;
41693;SDS011;27377;50.666;9.150;2024-01-30T12:28:49;11.82;;;6.88;;
41693;SDS011;27377;50.666;9.150;2024-01-30T12:31:36;9.52;;;6.55;;
41693;SDS011;27377;50.666;9.150;2024-01-30T12:34:20;10.93;;;7.03;;
41693;SDS011;27377;50.666;9.150;2024-01-30T12:37:04;12.03;;;6.73;;
41693;SDS011;27377;50.666;9.150;2024-01-30T12:39:50;10.77;;;6.55;;
41693;SDS011;27377;50.666;9.150;2024-01-30T12:42:37;10.77;;;6.25;;
41693;SDS011;27377;50.666;9.150;2024-01-30T12:45:21;11.38;;;6.40;;
41693;SDS011;27377;50.666;9.150;2024-01-30T12:48:06;10.43;;;6.72;;
41693;SDS011;27377;50.666;9.150;2024-01-30T12:50:50;8.88;;;6.03;;
41693;SDS011;27377;50.666;9.150;2024-01-30T12:53:34;10.45;;;6.57;;
41693;SDS011;27377;50.666;9.150;2024-01-30T12:56:19;11.18;;;6.90;;
41693;SDS011;27377;50.666;9.150;2024-01-30T12:59:03;10.95;;;6.68;;
41693;SDS011;27377;50.666;9.150;2024-01-30T13:01:47;11.07;;;7.05;;
41693;SDS011;27377;50.666;9.150;2024-01-30T13:04:32;11.95;;;7.65;;
41693;SDS011;27377;50.666;9.150;2024-01-30T13:07:16;13.50;;;7.88;;
41693;SDS011;27377;50.666;9.150;2024-01-30T13:10:00;12.52;;;7.70;;
41693;SDS011;27377;50.666;9.150;2024-01-30T13:12:47;13.55;;;7.65;;
41693;SDS011;27377;50.666;9.150;2024-01-30T13:15:31;12.90;;;7.60;;
41693;SDS011;27377;50.666;9.150;2024-01-30T13:18:15;10.82;;;6.93;;
41693;SDS011;27377;50.666;9.150;2024-01-30T13:20:59;13.90;;;7.47;;
41693;SDS011;27377;50.666;9.150;2024-01-30T13:23:43;13.30;;;7.32;;
41693;SDS011;27377;50.666;9.150;2024-01-30T13:26:27;12.00;;;7.47;;
41693;SDS011;27377;50.666;9.150;2024-01-30T13:29:11;11.68;;;7.38;;
41693;SDS011;27377;50.666;9.150;2024-01-30T13:31:56;12.43;;;7.78;;
41693;SDS011;27377;50.666;9.150;2024-01-30T13:34:40;12.02;;;7.78;;
41693;SDS011;27377;50.666;9.150;2024-01-30T13:37:25;13.98;;;7.80;;
41693;SDS011;27377;50.666;9.150;2024-01-30T13:40:09;13.02;;;8.05;;
41693;SDS011;27377;50.666;9.150;2024-01-30T13:42:53;14.07;;;8.57;;
41693;SDS011;27377;50.666;9.150;2024-01-30T13:45:37;13.50;;;8.15;;
41693;SDS011;27377;50.666;9.150;2024-01-30T13:48:21;13.18;;;7.90;;
41693;SDS011;27377;50.666;9.150;2024-01-30T13:51:05;12.38;;;7.65;;
41693;SDS011;27377;50.666;9.150;2024-01-30T13:53:49;11.75;;;7.50;;
41693;SDS011;27377;50.666;9.150;2024-01-30T13:56:34;13.73;;;8.13;;
41693;SDS011;27377;50.666;9.150;2024-01-30T13:59:18;11.23;;;7.40;;
41693;SDS011;27377;50.666;9.150;2024-01-30T14:02:07;12.50;;;7.57;;
41693;SDS011;27377;50.666;9.150;2024-01-30T14:04:53;11.80;;;7.77;;
41693;SDS011;27377;50.666;9.150;2024-01-30T14:07:38;12.33;;;7.57;;
41693;SDS011;27377;50.666;9.150;2024-01-30T14:10:26;11.40;;;7.40;;
41693;SDS011;27377;50.666;9.150;2024-01-30T14:13:10;12.63;;;7.40;;
41693;SDS011;27377;50.666;9.150;2024-01-30T14:15:55;12.35;;;7.63;;
41693;SDS011;27377;50.666;9.150;2024-01-30T14:18:40;11.45;;;7.43;;
41693;SDS011;27377;50.666;9.150;2024-01-30T14:21:25;12.07;;;7.47;;
41693;SDS011;27377;50.666;9.150;2024-01-30T14:24:09;13.23;;;7.78;;
41693;SDS011;27377;50.666;9.150;2024-01-30T14:26:53;12.15;;;7.90;;
41693;SDS011;27377;50.666;9.150;2024-01-30T14:29:37;12.07;;;7.80;;
41693;SDS011;27377;50.666;9.150;2024-01-30T14:32:22;13.43;;;8.07;;
41693;SDS011;27377;50.666;9.150;2024-01-30T14:35:07;12.73;;;7.60;;
41693;SDS011;27377;50.666;9.150;2024-01-30T14:37:52;11.80;;;7.75;;
41693;SDS011;27377;50.666;9.150;2024-01-30T14:40:38;11.82;;;7.90;;
41693;SDS011;27377;50.666;9.150;2024-01-30T14:43:22;13.82;;;7.90;;
41693;SDS011;27377;50.666;9.150;2024-01-30T14:46:06;11.07;;;7.50;;
41693;SDS011;27377;50.666;9.150;2024-01-30T14:48:51;12.68;;;8.15;;
41693;SDS011;27377;50.666;9.150;2024-01-30T14:51:35;12.07;;;7.95;;
41693;SDS011;27377;50.666;9.150;2024-01-30T14:54:19;12.30;;;7.83;;
41693;SDS011;27377;50.666;9.150;2024-01-30T14:57:03;13.45;;;7.85;;
41693;SDS011;27377;50.666;9.150;2024-01-30T14:59:48;11.75;;;8.05;;
41693;SDS011;27377;50.666;9.150;2024-01-30T15:02:32;13.32;;;7.97;;
41693;SDS011;27377;50.666;9.150;2024-01-30T15:05:17;12.60;;;7.57;;
41693;SDS011;27377;50.666;9.150;2024-01-30T15:08:01;14.07;;;8.10;;
41693;SDS011;27377;50.666;9.150;2024-01-30T15:10:45;12.38;;;8.15;;
41693;SDS011;27377;50.666;9.150;2024-01-30T15:13:30;13.32;;;8.30;;
41693;SDS011;27377;50.666;9.150;2024-01-30T15:16:14;11.95;;;8.23;;
41693;SDS011;27377;50.666;9.150;2024-01-30T15:18:58;13.25;;;8.02;;
41693;SDS011;27377;50.666;9.150;2024-01-30T15:21:42;13.55;;;8.20;;
41693;SDS011;27377;50.666;9.150;2024-01-30T15:24:26;12.75;;;7.65;;
41693;SDS011;27377;50.666;9.150;2024-01-30T15:27:10;13.32;;;8.18;;
41693;SDS011;27377;50.666;9.150;2024-01-30T15:29:54;11.10;;;7.60;;
41693;SDS011;27377;50.666;9.150;2024-01-30T15:32:38;10.77;;;7.55;;
41693;SDS011;27377;50.666;9.150;2024-01-30T15:35:22;13.73;;;8.00;;
41693;SDS011;27377;50.666;9.150;2024-01-30T15:38:06;13.77;;;7.93;;
41693;SDS011;27377;50.666;9.150;2024-01-30T15:40:52;12.93;;;8.10;;
41693;SDS011;27377;50.666;9.150;2024-01-30T15:43:37;15.57;;;8.27;;
41693;SDS011;27377;50.666;9.150;2024-01-30T15:46:21;13.70;;;8.00;;
41693;SDS011;27377;50.666;9.150;2024-01-30T15:49:05;13.30;;;8.40;;
41693;SDS011;27377;50.666;9.150;2024-01-30T15:51:50;12.63;;;8.15;;
41693;SDS011;27377;50.666;9.150;2024-01-30T15:54:34;12.13;;;7.83;;
41693;SDS011;27377;50.666;9.150;2024-01-30T15:57:19;13.10;;;8.20;;
41693;SDS011;27377;50.666;9.150;2024-01-30T16:00:03;15.05;;;7.85;;
41693;SDS011;27377;50.666;9.150;2024-01-30T16:02:47;13.00;;;8.27;;
41693;SDS011;27377;50.666;9.150;2024-01-30T16:05:32;12.77;;;8.48;;
41693;SDS011;27377;50.666;9.150;2024-01-30T16:08:16;12.73;;;8.60;;
41693;SDS011;27377;50.666;9.150;2024-01-30T16:11:00;12.82;;;8.85;;
41693;SDS011;27377;50.666;9.150;2024-01-30T16:13:45;13.60;;;8.23;;
41693;SDS011;27377;50.666;9.150;2024-01-30T16:16:29;13.55;;;8.30;;